sensor_id;sensor_type;location;lat;lon;timestamp;pressure;altitude;pressure_sealevel;temperature;humidity
36304;BME280;22335;49.800;8.596;2023-08-17T00:06:26;100616.16;;;25.21;60.76
36304;BME280;22335;49.800;8.596;2023-08-17T00:13:10;100616.53;;;25.19;60.41
36304;BME280;22335;49.800;8.596;2023-08-17T00:19:54;100611.81;;;25.27;60.32
36304;BME280;22335;49.800;8.596;2023-08-17T00:26:38;100595.19;;;25.11;59.88
36304;BME280;22335;49.800;8.596;2023-08-17T00:33:21;100614.00;;;25.41;60.29
36304;BME280;22335;49.800;8.596;2023-08-17T00:40:07;100601.66;;;25.45;60.03
36304;BME280;22335;49.800;8.596;2023-08-17T00:46:52;100590.44;;;25.45;60.01
36304;BME280;22335;49.800;8.596;2023-08-17T00:53:35;100594.63;;;25.59;59.71
36304;BME280;22335;49.800;8.596;2023-08-17T01:00:20;100591.81;;;25.59;59.78
36304;BME280;22335;49.800;8.596;2023-08-17T01:07:04;100602.97;;;25.55;59.81
36304;BME280;22335;49.800;8.596;2023-08-17T01:13:52;100582.59;;;25.58;60.19
36304;BME280;22335;49.800;8.596;2023-08-17T01:20:41;100576.13;;;25.54;59.38
36304;BME280;22335;49.800;8.596;2023-08-17T01:27:37;100573.63;;;25.45;59.87
36304;BME280;22335;49.800;8.596;2023-08-17T01:34:24;100499.00;;;24.89;59.68
36304;BME280;22335;49.800;8.596;2023-08-17T01:41:09;100496.09;;;24.82;59.57
36304;BME280;22335;49.800;8.596;2023-08-17T01:47:58;100572.13;;;25.18;59.66
36304;BME280;22335;49.800;8.596;2023-08-17T01:54:41;100569.94;;;25.04;60.25
36304;BME280;22335;49.800;8.596;2023-08-17T02:01:26;100577.81;;;24.95;60.19
36304;BME280;22335;49.800;8.596;2023-08-17T02:08:12;100498.75;;;24.41;60.72
36304;BME280;22335;49.800;8.596;2023-08-17T02:14:55;100570.41;;;24.79;60.99
36304;BME280;22335;49.800;8.596;2023-08-17T02:21:39;100566.41;;;24.80;60.90
36304;BME280;22335;49.800;8.596;2023-08-17T02:28:24;100555.19;;;24.77;61.25
36304;BME280;22335;49.800;8.596;2023-08-17T02:35:08;100535.75;;;24.57;61.37
36304;BME280;22335;49.800;8.596;2023-08-17T02:41:52;100557.34;;;24.60;61.62
36304;BME280;22335;49.800;8.596;2023-08-17T03:03:39;100559.63;;;24.51;61.63
36304;BME280;22335;49.800;8.596;2023-08-17T03:10:25;100570.00;;;24.51;61.70
36304;BME280;22335;49.800;8.596;2023-08-17T03:17:09;100559.66;;;24.55;61.77
36304;BME280;22335;49.800;8.596;2023-08-17T03:23:54;100558.22;;;24.38;62.79
36304;BME280;22335;49.800;8.596;2023-08-17T03:30:37;100558.38;;;24.22;63.42
36304;BME280;22335;49.800;8.596;2023-08-17T03:37:21;100563.06;;;24.18;64.06
36304;BME280;22335;49.800;8.596;2023-08-17T03:44:07;100563.94;;;24.22;64.49
36304;BME280;22335;49.800;8.596;2023-08-17T03:50:51;100567.91;;;24.21;64.03
36304;BME280;22335;49.800;8.596;2023-08-17T03:57:35;100581.53;;;24.23;64.66
36304;BME280;22335;49.800;8.596;2023-08-17T04:04:20;100578.53;;;24.35;64.41
36304;BME280;22335;49.800;8.596;2023-08-17T04:11:04;100590.13;;;24.37;64.26
36304;BME280;22335;49.800;8.596;2023-08-17T04:17:48;100587.66;;;24.32;64.35
36304;BME280;22335;49.800;8.596;2023-08-17T04:24:33;100523.31;;;23.79;64.80
36304;BME280;22335;49.800;8.596;2023-08-17T04:31:16;100597.81;;;23.94;64.91
36304;BME280;22335;49.800;8.596;2023-08-17T04:38:08;100600.53;;;23.90;65.07
36304;BME280;22335;49.800;8.596;2023-08-17T04:44:53;100601.03;;;23.96;65.16
36304;BME280;22335;49.800;8.596;2023-08-17T04:51:37;100616.25;;;23.99;65.00
36304;BME280;22335;49.800;8.596;2023-08-17T04:58:21;100609.59;;;23.84;65.48
36304;BME280;22335;49.800;8.596;2023-08-17T05:05:09;100613.56;;;23.83;65.16
36304;BME280;22335;49.800;8.596;2023-08-17T05:11:54;100620.19;;;23.75;65.82
36304;BME280;22335;49.800;8.596;2023-08-17T05:18:38;100638.13;;;23.74;65.67
36304;BME280;22335;49.800;8.596;2023-08-17T05:25:24;100617.53;;;23.62;65.81
36304;BME280;22335;49.800;8.596;2023-08-17T05:32:07;100629.88;;;23.61;65.94
36304;BME280;22335;49.800;8.596;2023-08-17T05:38:52;100635.28;;;23.70;65.81
36304;BME280;22335;49.800;8.596;2023-08-17T05:45:37;100621.09;;;23.79;65.83
36304;BME280;22335;49.800;8.596;2023-08-17T05:52:20;100636.25;;;24.01;65.55
36304;BME280;22335;49.800;8.596;2023-08-17T05:59:04;100579.94;;;23.76;65.71
36304;BME280;22335;49.800;8.596;2023-08-17T06:05:52;100629.34;;;23.95;66.36
36304;BME280;22335;49.800;8.596;2023-08-17T06:12:35;100640.63;;;23.79;66.78
36304;BME280;22335;49.800;8.596;2023-08-17T06:19:20;100658.69;;;23.65;67.55
36304;BME280;22335;49.800;8.596;2023-08-17T06:26:05;100636.28;;;23.62;67.57
36304;BME280;22335;49.800;8.596;2023-08-17T06:32:50;100633.88;;;23.60;68.04
36304;BME280;22335;49.800;8.596;2023-08-17T06:39:34;100653.03;;;23.62;68.13
36304;BME280;22335;49.800;8.596;2023-08-17T06:46:21;100638.47;;;23.53;68.77
36304;BME280;22335;49.800;8.596;2023-08-17T06:53:06;100647.19;;;23.47;68.82
36304;BME280;22335;49.800;8.596;2023-08-17T06:59:49;100645.78;;;23.57;69.35
36304;BME280;22335;49.800;8.596;2023-08-17T07:06:34;100601.09;;;23.57;69.10
36304;BME280;22335;49.800;8.596;2023-08-17T07:13:17;100652.00;;;23.89;68.85
36304;BME280;22335;49.800;8.596;2023-08-17T07:20:02;100654.25;;;24.03;68.97
36304;BME280;22335;49.800;8.596;2023-08-17T07:26:57;100653.88;;;24.05;69.31
36304;BME280;22335;49.800;8.596;2023-08-17T07:33:41;100654.69;;;24.05;69.08
36304;BME280;22335;49.800;8.596;2023-08-17T07:40:24;100618.34;;;23.82;69.51
36304;BME280;22335;49.800;8.596;2023-08-17T07:47:09;100653.19;;;24.11;69.51
36304;BME280;22335;49.800;8.596;2023-08-17T07:53:52;100661.44;;;24.27;69.19
36304;BME280;22335;49.800;8.596;2023-08-17T08:00:36;100625.59;;;24.33;69.29
36304;BME280;22335;49.800;8.596;2023-08-17T08:07:21;100637.41;;;24.69;68.58
36304;BME280;22335;49.800;8.596;2023-08-17T08:14:06;100649.34;;;24.66;67.85
36304;BME280;22335;49.800;8.596;2023-08-17T08:20:49;100654.72;;;24.78;67.70
36304;BME280;22335;49.800;8.596;2023-08-17T08:27:34;100638.84;;;24.85;67.89
36304;BME280;22335;49.800;8.596;2023-08-17T08:34:18;100646.41;;;25.12;67.54
36304;BME280;22335;49.800;8.596;2023-08-17T08:41:02;100643.06;;;25.29;66.51
36304;BME280;22335;49.800;8.596;2023-08-17T08:47:47;100634.88;;;25.47;65.85
36304;BME280;22335;49.800;8.596;2023-08-17T08:54:31;100662.88;;;25.81;65.33
36304;BME280;22335;49.800;8.596;2023-08-17T09:01:18;100653.94;;;26.02;65.13
36304;BME280;22335;49.800;8.596;2023-08-17T09:08:05;100639.28;;;26.22;64.61
36304;BME280;22335;49.800;8.596;2023-08-17T09:14:50;100635.69;;;26.22;64.67
36304;BME280;22335;49.800;8.596;2023-08-17T09:21:37;100630.19;;;26.36;64.32
36304;BME280;22335;49.800;8.596;2023-08-17T09:28:22;100621.13;;;26.54;63.85
36304;BME280;22335;49.800;8.596;2023-08-17T09:35:07;100618.47;;;26.75;63.89
36304;BME280;22335;49.800;8.596;2023-08-17T09:41:50;100624.63;;;26.95;63.23
36304;BME280;22335;49.800;8.596;2023-08-17T09:48:36;100621.53;;;27.15;62.57
36304;BME280;22335;49.800;8.596;2023-08-17T09:55:19;100618.63;;;27.00;63.30
36304;BME280;22335;49.800;8.596;2023-08-17T10:02:10;100603.91;;;27.21;62.24
36304;BME280;22335;49.800;8.596;2023-08-17T10:09:02;100608.75;;;27.24;62.30
36304;BME280;22335;49.800;8.596;2023-08-17T10:15:47;100616.31;;;27.13;63.00
36304;BME280;22335;49.800;8.596;2023-08-17T10:22:44;100613.97;;;27.26;61.91
36304;BME280;22335;49.800;8.596;2023-08-17T10:29:35;100613.22;;;27.47;61.53
36304;BME280;22335;49.800;8.596;2023-08-17T10:36:20;100609.66;;;27.64;61.08
36304;BME280;22335;49.800;8.596;2023-08-17T10:43:04;100616.16;;;27.79;60.29
36304;BME280;22335;49.800;8.596;2023-08-17T10:49:49;100617.81;;;27.91;60.30
36304;BME280;22335;49.800;8.596;2023-08-17T10:56:33;100606.16;;;28.17;59.22
36304;BME280;22335;49.800;8.596;2023-08-17T11:03:18;100590.09;;;28.21;59.17
36304;BME280;22335;49.800;8.596;2023-08-17T11:10:10;100605.38;;;28.45;58.48
36304;BME280;22335;49.800;8.596;2023-08-17T11:16:55;100603.34;;;28.60;57.98
36304;BME280;22335;49.800;8.596;2023-08-17T11:23:38;100619.00;;;28.72;57.92
36304;BME280;22335;49.800;8.596;2023-08-17T11:30:24;100602.88;;;28.90;57.43
36304;BME280;22335;49.800;8.596;2023-08-17T11:37:11;100584.75;;;28.95;56.88
36304;BME280;22335;49.800;8.596;2023-08-17T11:43:54;100582.31;;;29.01;56.38
36304;BME280;22335;49.800;8.596;2023-08-17T11:50:39;100520.00;;;28.91;55.78
36304;BME280;22335;49.800;8.596;2023-08-17T11:57:23;100573.69;;;29.47;55.99
36304;BME280;22335;49.800;8.596;2023-08-17T12:04:07;100572.84;;;29.61;55.34
36304;BME280;22335;49.800;8.596;2023-08-17T12:10:52;100585.69;;;29.66;55.09
36304;BME280;22335;49.800;8.596;2023-08-17T12:17:35;100570.38;;;29.63;54.49
36304;BME280;22335;49.800;8.596;2023-08-17T12:24:19;100578.25;;;29.93;54.15
36304;BME280;22335;49.800;8.596;2023-08-17T12:31:03;100591.34;;;30.18;53.51
36304;BME280;22335;49.800;8.596;2023-08-17T12:37:47;100597.09;;;30.03;55.16
36304;BME280;22335;49.800;8.596;2023-08-17T12:44:30;100613.28;;;29.96;54.76
36304;BME280;22335;49.800;8.596;2023-08-17T12:51:15;100602.44;;;29.87;54.91
36304;BME280;22335;49.800;8.596;2023-08-17T12:57:58;100596.75;;;29.94;55.50
36304;BME280;22335;49.800;8.596;2023-08-17T13:04:42;100450.25;;;29.24;54.60
36304;BME280;22335;49.800;8.596;2023-08-17T13:11:27;100563.03;;;30.28;54.51
36304;BME280;22335;49.800;8.596;2023-08-17T13:18:10;100556.03;;;30.44;53.99
36304;BME280;22335;49.800;8.596;2023-08-17T13:24:54;100495.13;;;30.05;52.95
36304;BME280;22335;49.800;8.596;2023-08-17T13:31:39;100542.25;;;30.53;52.74
36304;BME280;22335;49.800;8.596;2023-08-17T13:38:22;100526.38;;;30.66;53.38
36304;BME280;22335;49.800;8.596;2023-08-17T13:45:07;100495.63;;;30.75;52.62
36304;BME280;22335;49.800;8.596;2023-08-17T13:51:52;100478.41;;;30.63;52.51
36304;BME280;22335;49.800;8.596;2023-08-17T13:58:37;100473.16;;;30.65;52.50
36304;BME280;22335;49.800;8.596;2023-08-17T14:05:21;100440.81;;;30.39;51.87
36304;BME280;22335;49.800;8.596;2023-08-17T14:12:06;100475.88;;;30.72;51.02
36304;BME280;22335;49.800;8.596;2023-08-17T14:18:50;100479.88;;;30.74;51.16
36304;BME280;22335;49.800;8.596;2023-08-17T14:25:33;100461.28;;;30.81;51.27
36304;BME280;22335;49.800;8.596;2023-08-17T14:32:18;100375.34;;;30.47;50.37
36304;BME280;22335;49.800;8.596;2023-08-17T14:39:04;100432.47;;;30.93;50.81
36304;BME280;22335;49.800;8.596;2023-08-17T14:45:48;100421.03;;;31.04;50.39
36304;BME280;22335;49.800;8.596;2023-08-17T14:52:33;100337.50;;;30.72;50.64
36304;BME280;22335;49.800;8.596;2023-08-17T14:59:16;100373.59;;;30.91;50.48
36304;BME280;22335;49.800;8.596;2023-08-17T15:05:59;100388.38;;;30.99;50.11
36304;BME280;22335;49.800;8.596;2023-08-17T15:12:45;100394.47;;;30.97;49.54
36304;BME280;22335;49.800;8.596;2023-08-17T15:19:28;100397.94;;;31.09;49.64
36304;BME280;22335;49.800;8.596;2023-08-17T15:26:19;100399.84;;;31.15;49.33
36304;BME280;22335;49.800;8.596;2023-08-17T15:33:04;100298.00;;;30.72;49.20
36304;BME280;22335;49.800;8.596;2023-08-17T15:39:48;100336.28;;;31.04;49.28
36304;BME280;22335;49.800;8.596;2023-08-17T15:46:33;100374.56;;;31.32;49.66
36304;BME280;22335;49.800;8.596;2023-08-17T15:53:18;100371.56;;;31.42;49.08
36304;BME280;22335;49.800;8.596;2023-08-17T16:00:01;100381.88;;;31.53;49.30
36304;BME280;22335;49.800;8.596;2023-08-17T16:06:49;100387.84;;;31.58;48.84
36304;BME280;22335;49.800;8.596;2023-08-17T16:13:34;100383.75;;;31.63;48.80
36304;BME280;22335;49.800;8.596;2023-08-17T16:20:17;100397.03;;;31.66;48.36
36304;BME280;22335;49.800;8.596;2023-08-17T16:27:01;100416.06;;;31.85;48.68
36304;BME280;22335;49.800;8.596;2023-08-17T16:33:46;100392.19;;;31.86;48.97
36304;BME280;22335;49.800;8.596;2023-08-17T16:40:30;100418.03;;;31.88;48.95
36304;BME280;22335;49.800;8.596;2023-08-17T16:47:17;100432.66;;;31.83;48.62
36304;BME280;22335;49.800;8.596;2023-08-17T16:54:03;100370.84;;;31.38;48.44
36304;BME280;22335;49.800;8.596;2023-08-17T17:00:47;100440.22;;;31.66;48.10
36304;BME280;22335;49.800;8.596;2023-08-17T17:07:30;100452.81;;;31.62;48.14
36304;BME280;22335;49.800;8.596;2023-08-17T17:14:15;100452.47;;;31.60;48.06
36304;BME280;22335;49.800;8.596;2023-08-17T17:20:59;100420.25;;;31.27;48.39
36304;BME280;22335;49.800;8.596;2023-08-17T17:27:43;100438.25;;;31.40;48.36
36304;BME280;22335;49.800;8.596;2023-08-17T17:34:28;100419.78;;;31.32;47.99
36304;BME280;22335;49.800;8.596;2023-08-17T17:41:13;100428.16;;;31.39;48.05
36304;BME280;22335;49.800;8.596;2023-08-17T17:47:56;100430.13;;;31.42;47.70
36304;BME280;22335;49.800;8.596;2023-08-17T17:54:41;100384.06;;;31.18;47.76
36304;BME280;22335;49.800;8.596;2023-08-17T18:01:25;100429.03;;;31.36;47.45
36304;BME280;22335;49.800;8.596;2023-08-17T18:08:08;100420.69;;;31.25;46.79
36304;BME280;22335;49.800;8.596;2023-08-17T18:14:53;100429.72;;;31.16;46.54
36304;BME280;22335;49.800;8.596;2023-08-17T18:21:37;100369.88;;;30.67;46.46
36304;BME280;22335;49.800;8.596;2023-08-17T18:28:20;100449.22;;;31.07;46.51
36304;BME280;22335;49.800;8.596;2023-08-17T18:35:07;100447.66;;;31.02;46.70
36304;BME280;22335;49.800;8.596;2023-08-17T18:41:52;100454.94;;;31.04;46.77
36304;BME280;22335;49.800;8.596;2023-08-17T18:48:35;100460.19;;;31.01;47.27
36304;BME280;22335;49.800;8.596;2023-08-17T18:55:20;100454.09;;;31.03;47.12
36304;BME280;22335;49.800;8.596;2023-08-17T19:02:04;100468.78;;;30.94;47.46
36304;BME280;22335;49.800;8.596;2023-08-17T19:08:48;100484.53;;;30.92;47.82
36304;BME280;22335;49.800;8.596;2023-08-17T19:15:32;100481.84;;;30.81;47.81
36304;BME280;22335;49.800;8.596;2023-08-17T19:22:16;100496.56;;;30.62;48.19
36304;BME280;22335;49.800;8.596;2023-08-17T19:29:00;100495.53;;;30.48;48.96
36304;BME280;22335;49.800;8.596;2023-08-17T19:35:45;100475.91;;;30.34;49.03
36304;BME280;22335;49.800;8.596;2023-08-17T19:42:29;100488.94;;;30.24;49.83
36304;BME280;22335;49.800;8.596;2023-08-17T19:49:12;100504.72;;;30.15;49.53
36304;BME280;22335;49.800;8.596;2023-08-17T19:55:58;100449.47;;;29.76;50.07
36304;BME280;22335;49.800;8.596;2023-08-17T20:02:42;100504.88;;;29.97;50.37
36304;BME280;22335;49.800;8.596;2023-08-17T20:09:32;100496.00;;;29.98;49.76
36304;BME280;22335;49.800;8.596;2023-08-17T20:16:17;100498.00;;;30.01;50.15
36304;BME280;22335;49.800;8.596;2023-08-17T20:23:01;100508.06;;;30.02;49.94
36304;BME280;22335;49.800;8.596;2023-08-17T20:29:45;100503.66;;;29.98;50.04
36304;BME280;22335;49.800;8.596;2023-08-17T20:36:29;100484.50;;;29.78;50.28
36304;BME280;22335;49.800;8.596;2023-08-17T20:43:13;100475.75;;;29.66;50.28
36304;BME280;22335;49.800;8.596;2023-08-17T20:49:57;100484.66;;;29.53;50.97
36304;BME280;22335;49.800;8.596;2023-08-17T20:56:41;100478.34;;;29.35;50.80
36304;BME280;22335;49.800;8.596;2023-08-17T21:03:25;100484.84;;;29.28;51.52
36304;BME280;22335;49.800;8.596;2023-08-17T21:10:09;100460.72;;;29.20;50.91
36304;BME280;22335;49.800;8.596;2023-08-17T21:16:53;100480.69;;;29.47;51.09
36304;BME280;22335;49.800;8.596;2023-08-17T21:23:37;100475.44;;;29.49;51.10
36304;BME280;22335;49.800;8.596;2023-08-17T21:30:20;100470.16;;;29.51;51.22
36304;BME280;22335;49.800;8.596;2023-08-17T21:37:08;100450.56;;;29.37;51.49
36304;BME280;22335;49.800;8.596;2023-08-17T21:43:52;100399.78;;;28.85;51.73
36304;BME280;22335;49.800;8.596;2023-08-17T21:50:36;100439.03;;;29.21;51.64
36304;BME280;22335;49.800;8.596;2023-08-17T21:57:21;100287.59;;;28.13;51.53
36304;BME280;22335;49.800;8.596;2023-08-17T22:04:05;100441.50;;;29.08;51.90
36304;BME280;22335;49.800;8.596;2023-08-17T22:10:48;100434.28;;;29.07;52.05
36304;BME280;22335;49.800;8.596;2023-08-17T22:17:33;100372.06;;;28.76;51.62
36304;BME280;22335;49.800;8.596;2023-08-17T22:24:17;100423.06;;;28.92;51.86
36304;BME280;22335;49.800;8.596;2023-08-17T22:31:03;100360.56;;;28.49;51.99
36304;BME280;22335;49.800;8.596;2023-08-17T22:37:49;100427.50;;;28.86;52.09
36304;BME280;22335;49.800;8.596;2023-08-17T22:44:33;100437.56;;;28.87;52.05
36304;BME280;22335;49.800;8.596;2023-08-17T22:51:17;100433.97;;;28.87;52.34
36304;BME280;22335;49.800;8.596;2023-08-17T22:58:02;100441.59;;;28.90;52.85
36304;BME280;22335;49.800;8.596;2023-08-17T23:04:46;100385.81;;;28.63;53.08
36304;BME280;22335;49.800;8.596;2023-08-17T23:11:29;100444.81;;;28.85;52.93
36304;BME280;22335;49.800;8.596;2023-08-17T23:18:14;100431.97;;;28.80;53.29
36304;BME280;22335;49.800;8.596;2023-08-17T23:24:58;100406.38;;;28.57;53.12
36304;BME280;22335;49.800;8.596;2023-08-17T23:31:41;100437.25;;;28.67;53.54
36304;BME280;22335;49.800;8.596;2023-08-17T23:38:26;100442.94;;;28.60;53.57
36304;BME280;22335;49.800;8.596;2023-08-17T23:45:10;100444.19;;;28.48;53.98
36304;BME280;22335;49.800;8.596;2023-08-17T23:51:54;100434.53;;;28.39;54.04
36304;BME280;22335;49.800;8.596;2023-08-17T23:58:39;100421.69;;;28.45;54.13
